sensor_id;sensor_type;location;lat;lon;timestamp;pressure;altitude;pressure_sealevel;temperature;humidity
46394;BME280;32099;53.588;10.176;2023-11-21T00:00:43;100645.25;;;8.95;100.00
46394;BME280;32099;53.588;10.176;2023-11-21T00:03:09;100643.56;;;8.94;100.00
46394;BME280;32099;53.588;10.176;2023-11-21T00:05:35;100657.69;;;8.90;100.00
46394;BME280;32099;53.588;10.176;2023-11-21T00:08:00;100653.13;;;8.82;100.00
46394;BME280;32099;53.588;10.176;2023-11-21T00:10:26;100664.00;;;8.74;100.00
46394;BME280;32099;53.588;10.176;2023-11-21T00:12:52;100660.47;;;8.65;100.00
46394;BME280;32099;53.588;10.176;2023-11-21T00:15:17;100671.16;;;8.58;100.00
46394;BME280;32099;53.588;10.176;2023-11-21T00:17:46;100673.38;;;8.55;100.00
46394;BME280;32099;53.588;10.176;2023-11-21T00:20:11;100667.25;;;8.53;100.00
46394;BME280;32099;53.588;10.176;2023-11-21T00:22:37;100668.47;;;8.50;100.00
46394;BME280;32099;53.588;10.176;2023-11-21T00:25:03;100675.78;;;8.49;100.00
46394;BME280;32099;53.588;10.176;2023-11-21T00:27:29;100684.78;;;8.50;100.00
46394;BME280;32099;53.588;10.176;2023-11-21T00:29:55;100690.88;;;8.44;99.93
46394;BME280;32099;53.588;10.176;2023-11-21T00:32:21;100680.66;;;8.38;100.00
46394;BME280;32099;53.588;10.176;2023-11-21T00:34:50;100690.34;;;8.32;100.00
46394;BME280;32099;53.588;10.176;2023-11-21T00:37:15;100686.13;;;8.21;100.00
46394;BME280;32099;53.588;10.176;2023-11-21T00:39:41;100695.75;;;8.07;100.00
46394;BME280;32099;53.588;10.176;2023-11-21T00:42:07;100697.13;;;8.03;100.00
46394;BME280;32099;53.588;10.176;2023-11-21T00:44:33;100700.19;;;8.00;100.00
46394;BME280;32099;53.588;10.176;2023-11-21T00:46:59;100707.97;;;7.95;100.00
46394;BME280;32099;53.588;10.176;2023-11-21T00:49:24;100709.66;;;7.87;100.00
46394;BME280;32099;53.588;10.176;2023-11-21T00:51:53;100706.44;;;7.84;100.00
46394;BME280;32099;53.588;10.176;2023-11-21T00:54:18;100718.47;;;7.81;100.00
46394;BME280;32099;53.588;10.176;2023-11-21T00:56:44;100718.94;;;7.77;100.00
46394;BME280;32099;53.588;10.176;2023-11-21T00:59:10;100721.84;;;7.75;100.00
46394;BME280;32099;53.588;10.176;2023-11-21T01:01:35;100733.00;;;7.72;100.00
46394;BME280;32099;53.588;10.176;2023-11-21T01:04:01;100733.19;;;7.70;100.00
46394;BME280;32099;53.588;10.176;2023-11-21T01:06:27;100737.78;;;7.70;100.00
46394;BME280;32099;53.588;10.176;2023-11-21T01:08:56;100751.19;;;7.71;100.00
46394;BME280;32099;53.588;10.176;2023-11-21T01:11:22;100752.19;;;7.70;100.00
46394;BME280;32099;53.588;10.176;2023-11-21T01:13:48;100749.31;;;7.72;100.00
46394;BME280;32099;53.588;10.176;2023-11-21T01:16:14;100759.16;;;7.73;100.00
46394;BME280;32099;53.588;10.176;2023-11-21T01:18:39;100753.56;;;7.75;100.00
46394;BME280;32099;53.588;10.176;2023-11-21T01:21:06;100765.25;;;7.75;100.00
46394;BME280;32099;53.588;10.176;2023-11-21T01:23:32;100771.38;;;7.69;99.30
46394;BME280;32099;53.588;10.176;2023-11-21T01:26:00;100775.03;;;7.60;100.00
46394;BME280;32099;53.588;10.176;2023-11-21T01:28:26;100774.00;;;7.52;99.71
46394;BME280;32099;53.588;10.176;2023-11-21T01:30:52;100776.00;;;7.50;99.80
46394;BME280;32099;53.588;10.176;2023-11-21T01:33:18;100775.88;;;7.52;100.00
46394;BME280;32099;53.588;10.176;2023-11-21T01:35:45;100769.44;;;7.53;100.00
46394;BME280;32099;53.588;10.176;2023-11-21T01:38:11;100777.88;;;7.50;98.73
46394;BME280;32099;53.588;10.176;2023-11-21T01:40:37;100772.78;;;7.47;98.77
46394;BME280;32099;53.588;10.176;2023-11-21T01:43:06;100790.94;;;7.46;98.80
46394;BME280;32099;53.588;10.176;2023-11-21T01:45:31;100794.81;;;7.44;99.38
46394;BME280;32099;53.588;10.176;2023-11-21T01:47:57;100792.25;;;7.42;100.00
46394;BME280;32099;53.588;10.176;2023-11-21T01:50:24;100793.09;;;7.43;99.08
46394;BME280;32099;53.588;10.176;2023-11-21T01:52:50;100795.28;;;7.39;99.47
46394;BME280;32099;53.588;10.176;2023-11-21T01:55:17;100789.84;;;7.39;99.71
46394;BME280;32099;53.588;10.176;2023-11-21T01:57:44;100789.34;;;7.35;99.19
46394;BME280;32099;53.588;10.176;2023-11-21T02:00:13;100796.78;;;7.33;98.96
46394;BME280;32099;53.588;10.176;2023-11-21T02:02:39;100798.47;;;7.34;98.28
46394;BME280;32099;53.588;10.176;2023-11-21T02:05:05;100801.91;;;7.36;97.77
46394;BME280;32099;53.588;10.176;2023-11-21T02:07:31;100810.50;;;7.32;98.10
46394;BME280;32099;53.588;10.176;2023-11-21T02:09:57;100813.41;;;7.30;98.98
46394;BME280;32099;53.588;10.176;2023-11-21T02:12:22;100816.25;;;7.29;98.55
46394;BME280;32099;53.588;10.176;2023-11-21T02:14:48;100820.84;;;7.28;97.70
46394;BME280;32099;53.588;10.176;2023-11-21T02:17:17;100823.88;;;7.25;97.28
46394;BME280;32099;53.588;10.176;2023-11-21T02:19:43;100817.38;;;7.18;97.36
46394;BME280;32099;53.588;10.176;2023-11-21T02:22:09;100815.69;;;7.17;97.98
46394;BME280;32099;53.588;10.176;2023-11-21T02:24:40;100824.50;;;7.19;98.57
46394;BME280;32099;53.588;10.176;2023-11-21T02:27:06;100828.91;;;7.20;97.62
46394;BME280;32099;53.588;10.176;2023-11-21T02:29:32;100834.19;;;7.21;98.27
46394;BME280;32099;53.588;10.176;2023-11-21T02:31:58;100842.63;;;7.18;98.13
46394;BME280;32099;53.588;10.176;2023-11-21T02:34:23;100834.81;;;7.15;97.34
46394;BME280;32099;53.588;10.176;2023-11-21T02:36:49;100843.63;;;7.17;98.41
46394;BME280;32099;53.588;10.176;2023-11-21T02:39:15;100845.34;;;7.18;97.25
46394;BME280;32099;53.588;10.176;2023-11-21T02:41:44;100847.22;;;7.18;96.83
46394;BME280;32099;53.588;10.176;2023-11-21T02:44:10;100849.06;;;7.17;96.67
46394;BME280;32099;53.588;10.176;2023-11-21T02:46:36;100859.44;;;7.22;97.79
46394;BME280;32099;53.588;10.176;2023-11-21T02:49:02;100862.16;;;7.22;97.38
46394;BME280;32099;53.588;10.176;2023-11-21T02:51:29;100860.84;;;7.26;97.44
46394;BME280;32099;53.588;10.176;2023-11-21T02:53:54;100858.66;;;7.30;97.16
46394;BME280;32099;53.588;10.176;2023-11-21T02:56:20;100863.38;;;7.28;96.51
46394;BME280;32099;53.588;10.176;2023-11-21T02:58:49;100866.56;;;7.23;96.92
46394;BME280;32099;53.588;10.176;2023-11-21T03:01:15;100860.59;;;7.19;96.31
46394;BME280;32099;53.588;10.176;2023-11-21T03:03:41;100873.47;;;7.17;96.58
46394;BME280;32099;53.588;10.176;2023-11-21T03:06:07;100868.53;;;7.13;96.87
46394;BME280;32099;53.588;10.176;2023-11-21T03:08:32;100870.69;;;7.09;96.04
46394;BME280;32099;53.588;10.176;2023-11-21T03:10:58;100869.00;;;7.08;97.60
46394;BME280;32099;53.588;10.176;2023-11-21T03:13:24;100865.13;;;7.10;97.30
46394;BME280;32099;53.588;10.176;2023-11-21T03:15:52;100862.09;;;7.14;96.86
46394;BME280;32099;53.588;10.176;2023-11-21T03:18:18;100870.53;;;7.10;96.57
46394;BME280;32099;53.588;10.176;2023-11-21T03:20:45;100878.84;;;7.09;97.43
46394;BME280;32099;53.588;10.176;2023-11-21T03:23:11;100882.25;;;7.11;96.04
46394;BME280;32099;53.588;10.176;2023-11-21T03:25:37;100880.38;;;7.12;96.71
46394;BME280;32099;53.588;10.176;2023-11-21T03:28:03;100890.69;;;7.08;96.22
46394;BME280;32099;53.588;10.176;2023-11-21T03:30:29;100895.41;;;7.06;95.52
46394;BME280;32099;53.588;10.176;2023-11-21T03:32:57;100896.13;;;7.08;95.40
46394;BME280;32099;53.588;10.176;2023-11-21T03:35:23;100902.53;;;7.07;95.48
46394;BME280;32099;53.588;10.176;2023-11-21T03:37:48;100904.25;;;7.08;95.83
46394;BME280;32099;53.588;10.176;2023-11-21T03:40:14;100908.84;;;7.07;94.45
46394;BME280;32099;53.588;10.176;2023-11-21T03:42:40;100918.28;;;7.03;96.03
46394;BME280;32099;53.588;10.176;2023-11-21T03:45:07;100924.00;;;7.00;95.59
46394;BME280;32099;53.588;10.176;2023-11-21T03:47:34;100923.47;;;6.97;95.74
46394;BME280;32099;53.588;10.176;2023-11-21T03:50:03;100926.00;;;6.98;95.48
46394;BME280;32099;53.588;10.176;2023-11-21T03:52:29;100935.84;;;6.99;96.69
46394;BME280;32099;53.588;10.176;2023-11-21T03:54:55;100941.28;;;6.99;95.66
46394;BME280;32099;53.588;10.176;2023-11-21T03:57:21;100947.56;;;7.00;95.47
46394;BME280;32099;53.588;10.176;2023-11-21T03:59:47;100946.56;;;7.01;95.89
46394;BME280;32099;53.588;10.176;2023-11-21T04:02:13;100954.84;;;6.99;97.01
46394;BME280;32099;53.588;10.176;2023-11-21T04:04:38;100960.97;;;7.01;96.84
46394;BME280;32099;53.588;10.176;2023-11-21T04:07:07;100947.41;;;7.01;96.28
46394;BME280;32099;53.588;10.176;2023-11-21T04:09:32;100962.97;;;6.99;95.69
46394;BME280;32099;53.588;10.176;2023-11-21T04:11:58;100971.97;;;7.00;95.98
46394;BME280;32099;53.588;10.176;2023-11-21T04:14:24;100963.84;;;7.00;96.71
46394;BME280;32099;53.588;10.176;2023-11-21T04:16:50;100967.69;;;6.97;95.50
46394;BME280;32099;53.588;10.176;2023-11-21T04:19:15;100972.09;;;6.98;96.34
46394;BME280;32099;53.588;10.176;2023-11-21T04:21:41;100985.38;;;7.01;96.50
46394;BME280;32099;53.588;10.176;2023-11-21T04:24:10;100920.28;;;6.65;95.78
46394;BME280;32099;53.588;10.176;2023-11-21T04:26:35;100981.81;;;7.01;95.82
46394;BME280;32099;53.588;10.176;2023-11-21T04:29:01;100997.03;;;7.02;96.49
46394;BME280;32099;53.588;10.176;2023-11-21T04:31:27;100990.78;;;7.01;96.42
46394;BME280;32099;53.588;10.176;2023-11-21T04:33:53;100998.91;;;7.01;96.11
46394;BME280;32099;53.588;10.176;2023-11-21T04:36:18;100996.91;;;7.03;97.03
46394;BME280;32099;53.588;10.176;2023-11-21T04:38:45;101003.88;;;7.06;96.19
46394;BME280;32099;53.588;10.176;2023-11-21T04:41:13;101007.59;;;7.05;95.23
46394;BME280;32099;53.588;10.176;2023-11-21T04:43:39;101001.09;;;6.98;95.22
46394;BME280;32099;53.588;10.176;2023-11-21T04:46:05;101013.78;;;6.97;96.39
46394;BME280;32099;53.588;10.176;2023-11-21T04:48:31;101010.78;;;7.00;95.45
46394;BME280;32099;53.588;10.176;2023-11-21T04:50:57;101011.63;;;7.01;95.05
46394;BME280;32099;53.588;10.176;2023-11-21T04:53:23;101015.19;;;7.01;95.30
46394;BME280;32099;53.588;10.176;2023-11-21T04:55:49;101013.66;;;6.99;95.66
46394;BME280;32099;53.588;10.176;2023-11-21T04:58:18;101012.66;;;7.00;97.41
46394;BME280;32099;53.588;10.176;2023-11-21T05:00:44;101021.63;;;7.00;95.06
46394;BME280;32099;53.588;10.176;2023-11-21T05:03:09;101018.19;;;6.98;95.46
46394;BME280;32099;53.588;10.176;2023-11-21T05:05:35;101024.31;;;7.00;96.15
46394;BME280;32099;53.588;10.176;2023-11-21T05:08:01;101031.28;;;7.03;95.77
46394;BME280;32099;53.588;10.176;2023-11-21T05:10:27;101037.72;;;7.02;94.84
46394;BME280;32099;53.588;10.176;2023-11-21T05:12:52;101042.16;;;7.03;95.47
46394;BME280;32099;53.588;10.176;2023-11-21T05:15:21;101047.44;;;7.04;94.77
46394;BME280;32099;53.588;10.176;2023-11-21T05:17:47;101048.28;;;7.05;94.73
46394;BME280;32099;53.588;10.176;2023-11-21T05:20:13;101043.84;;;7.04;94.78
46394;BME280;32099;53.588;10.176;2023-11-21T05:22:39;101050.97;;;7.05;94.91
46394;BME280;32099;53.588;10.176;2023-11-21T05:25:05;101052.00;;;7.04;93.86
46394;BME280;32099;53.588;10.176;2023-11-21T05:27:31;101054.00;;;7.02;94.29
46394;BME280;32099;53.588;10.176;2023-11-21T05:29:57;101057.88;;;6.99;95.06
46394;BME280;32099;53.588;10.176;2023-11-21T05:32:26;101067.16;;;6.97;94.18
46394;BME280;32099;53.588;10.176;2023-11-21T05:34:52;101077.31;;;6.94;94.87
46394;BME280;32099;53.588;10.176;2023-11-21T05:37:17;101074.44;;;6.96;94.23
46394;BME280;32099;53.588;10.176;2023-11-21T05:39:43;101072.44;;;6.98;94.56
46394;BME280;32099;53.588;10.176;2023-11-21T05:42:09;101083.72;;;6.93;94.72
46394;BME280;32099;53.588;10.176;2023-11-21T05:44:35;101079.94;;;6.86;93.76
46394;BME280;32099;53.588;10.176;2023-11-21T05:47:01;101087.50;;;6.83;94.43
46394;BME280;32099;53.588;10.176;2023-11-21T05:49:30;101087.63;;;6.81;95.31
46394;BME280;32099;53.588;10.176;2023-11-21T05:51:56;101091.22;;;6.82;95.52
46394;BME280;32099;53.588;10.176;2023-11-21T05:54:22;101094.78;;;6.82;94.97
46394;BME280;32099;53.588;10.176;2023-11-21T05:56:47;101101.63;;;6.86;94.07
46394;BME280;32099;53.588;10.176;2023-11-21T05:59:13;101100.75;;;6.86;94.25
46394;BME280;32099;53.588;10.176;2023-11-21T06:01:39;101107.16;;;6.85;94.01
46394;BME280;32099;53.588;10.176;2023-11-21T06:04:05;101115.00;;;6.88;95.14
46394;BME280;32099;53.588;10.176;2023-11-21T06:06:33;101119.97;;;6.92;94.74
46394;BME280;32099;53.588;10.176;2023-11-21T06:08:59;101129.69;;;6.95;94.04
46394;BME280;32099;53.588;10.176;2023-11-21T06:11:25;101133.41;;;6.94;94.01
46394;BME280;32099;53.588;10.176;2023-11-21T06:13:50;101136.25;;;6.92;93.93
46394;BME280;32099;53.588;10.176;2023-11-21T06:16:16;101149.97;;;6.91;94.33
46394;BME280;32099;53.588;10.176;2023-11-21T06:18:42;101144.53;;;6.91;94.25
46394;BME280;32099;53.588;10.176;2023-11-21T06:21:09;101151.81;;;6.90;93.38
46394;BME280;32099;53.588;10.176;2023-11-21T06:23:37;101152.97;;;6.88;93.25
46394;BME280;32099;53.588;10.176;2023-11-21T06:26:03;101153.97;;;6.87;94.89
46394;BME280;32099;53.588;10.176;2023-11-21T06:28:29;101158.25;;;6.89;94.10
46394;BME280;32099;53.588;10.176;2023-11-21T06:30:55;101162.50;;;6.92;95.49
46394;BME280;32099;53.588;10.176;2023-11-21T06:33:22;101163.22;;;6.94;95.53
46394;BME280;32099;53.588;10.176;2023-11-21T06:35:47;101110.56;;;6.59;94.55
46394;BME280;32099;53.588;10.176;2023-11-21T06:38:13;101167.50;;;6.97;94.01
46394;BME280;32099;53.588;10.176;2023-11-21T06:40:42;101173.47;;;7.00;92.88
46394;BME280;32099;53.588;10.176;2023-11-21T06:43:08;101136.63;;;6.70;93.34
46394;BME280;32099;53.588;10.176;2023-11-21T06:45:34;101183.31;;;7.01;93.38
46394;BME280;32099;53.588;10.176;2023-11-21T06:48:00;101194.16;;;7.01;92.52
46394;BME280;32099;53.588;10.176;2023-11-21T06:50:25;101199.41;;;7.03;93.19
46394;BME280;32099;53.588;10.176;2023-11-21T06:52:51;101199.28;;;7.04;92.60
46394;BME280;32099;53.588;10.176;2023-11-21T06:55:17;101195.72;;;7.04;93.56
46394;BME280;32099;53.588;10.176;2023-11-21T06:57:45;101198.28;;;7.05;93.42
46394;BME280;32099;53.588;10.176;2023-11-21T07:00:11;101203.56;;;7.07;94.02
46394;BME280;32099;53.588;10.176;2023-11-21T07:02:38;101204.25;;;7.09;93.08
46394;BME280;32099;53.588;10.176;2023-11-21T07:05:04;101209.53;;;7.10;94.20
46394;BME280;32099;53.588;10.176;2023-11-21T07:07:30;101211.25;;;7.12;94.02
46394;BME280;32099;53.588;10.176;2023-11-21T07:09:56;101225.50;;;7.14;93.43
46394;BME280;32099;53.588;10.176;2023-11-21T07:12:21;101227.38;;;7.13;94.23
46394;BME280;32099;53.588;10.176;2023-11-21T07:14:50;101233.81;;;7.12;93.82
46394;BME280;32099;53.588;10.176;2023-11-21T07:17:15;101232.81;;;7.13;94.70
46394;BME280;32099;53.588;10.176;2023-11-21T07:19:41;101234.50;;;7.14;94.66
46394;BME280;32099;53.588;10.176;2023-11-21T07:22:07;101250.63;;;7.16;93.91
46394;BME280;32099;53.588;10.176;2023-11-21T07:24:32;101204.75;;;6.85;94.64
46394;BME280;32099;53.588;10.176;2023-11-21T07:26:58;101251.22;;;7.09;93.95
46394;BME280;32099;53.588;10.176;2023-11-21T07:29:24;101257.94;;;7.05;94.29
46394;BME280;32099;53.588;10.176;2023-11-21T07:31:52;101273.50;;;7.03;94.69
46394;BME280;32099;53.588;10.176;2023-11-21T07:34:18;101279.78;;;7.04;94.54
46394;BME280;32099;53.588;10.176;2023-11-21T07:36:44;101276.34;;;7.02;94.72
46394;BME280;32099;53.588;10.176;2023-11-21T07:39:10;101281.78;;;7.02;94.86
46394;BME280;32099;53.588;10.176;2023-11-21T07:41:35;101281.78;;;7.02;94.28
46394;BME280;32099;53.588;10.176;2023-11-21T07:44:01;101280.09;;;7.01;94.81
46394;BME280;32099;53.588;10.176;2023-11-21T07:46:27;101281.78;;;7.02;94.30
46394;BME280;32099;53.588;10.176;2023-11-21T07:48:55;101282.81;;;7.01;93.33
46394;BME280;32099;53.588;10.176;2023-11-21T07:51:21;101286.63;;;6.98;95.40
46394;BME280;32099;53.588;10.176;2023-11-21T07:53:46;101299.06;;;7.01;93.51
46394;BME280;32099;53.588;10.176;2023-11-21T07:56:12;101293.50;;;7.02;92.75
46394;BME280;32099;53.588;10.176;2023-11-21T07:58:38;101289.78;;;7.03;93.11
46394;BME280;32099;53.588;10.176;2023-11-21T08:01:04;101294.22;;;7.04;93.56
46394;BME280;32099;53.588;10.176;2023-11-21T08:03:30;101294.06;;;7.06;93.86
46394;BME280;32099;53.588;10.176;2023-11-21T08:05:58;101293.91;;;7.07;94.60
46394;BME280;32099;53.588;10.176;2023-11-21T08:08:25;101250.31;;;6.71;94.00
46394;BME280;32099;53.588;10.176;2023-11-21T08:10:51;101316.34;;;7.00;93.91
46394;BME280;32099;53.588;10.176;2023-11-21T08:13:16;101308.88;;;7.12;93.93
46394;BME280;32099;53.588;10.176;2023-11-21T08:15:42;101306.88;;;7.14;93.09
46394;BME280;32099;53.588;10.176;2023-11-21T08:18:09;101312.03;;;7.17;93.29
46394;BME280;32099;53.588;10.176;2023-11-21T08:20:35;101312.56;;;7.20;93.18
46394;BME280;32099;53.588;10.176;2023-11-21T08:23:03;101317.00;;;7.21;93.79
46394;BME280;32099;53.588;10.176;2023-11-21T08:25:29;101320.56;;;7.22;92.64
46394;BME280;32099;53.588;10.176;2023-11-21T08:27:54;101332.41;;;7.21;92.85
46394;BME280;32099;53.588;10.176;2023-11-21T08:30:20;101330.56;;;7.21;92.03
46394;BME280;32099;53.588;10.176;2023-11-21T08:32:46;101341.41;;;7.21;91.54
46394;BME280;32099;53.588;10.176;2023-11-21T08:35:11;101343.13;;;7.22;92.33
46394;BME280;32099;53.588;10.176;2023-11-21T08:37:37;101337.84;;;7.21;91.28
46394;BME280;32099;53.588;10.176;2023-11-21T08:40:06;101344.13;;;7.21;93.21
46394;BME280;32099;53.588;10.176;2023-11-21T08:42:33;101352.25;;;7.21;93.03
46394;BME280;32099;53.588;10.176;2023-11-21T08:44:59;101354.09;;;7.21;91.81
46394;BME280;32099;53.588;10.176;2023-11-21T08:47:24;101355.41;;;7.17;91.31
46394;BME280;32099;53.588;10.176;2023-11-21T08:49:50;101359.13;;;7.16;91.77
46394;BME280;32099;53.588;10.176;2023-11-21T08:52:16;101366.41;;;7.15;92.38
46394;BME280;32099;53.588;10.176;2023-11-21T08:54:41;101379.13;;;7.15;91.81
46394;BME280;32099;53.588;10.176;2023-11-21T08:57:10;101378.25;;;7.14;92.14
46394;BME280;32099;53.588;10.176;2023-11-21T08:59:35;101373.53;;;7.16;93.41
46394;BME280;32099;53.588;10.176;2023-11-21T09:02:01;101385.09;;;7.18;92.79
46394;BME280;32099;53.588;10.176;2023-11-21T09:04:27;101388.38;;;7.22;93.47
46394;BME280;32099;53.588;10.176;2023-11-21T09:06:53;101400.22;;;7.21;93.34
46394;BME280;32099;53.588;10.176;2023-11-21T09:09:18;101400.53;;;7.18;92.97
46394;BME280;32099;53.588;10.176;2023-11-21T09:11:44;101400.53;;;7.18;92.69
46394;BME280;32099;53.588;10.176;2023-11-21T09:14:12;101402.25;;;7.19;94.07
46394;BME280;32099;53.588;10.176;2023-11-21T09:16:38;101409.22;;;7.21;93.50
46394;BME280;32099;53.588;10.176;2023-11-21T09:19:04;101401.09;;;7.21;93.81
46394;BME280;32099;53.588;10.176;2023-11-21T09:21:29;101415.22;;;7.25;93.25
46394;BME280;32099;53.588;10.176;2023-11-21T09:23:55;101420.50;;;7.26;94.16
46394;BME280;32099;53.588;10.176;2023-11-21T09:26:21;101419.06;;;7.32;95.17
46394;BME280;32099;53.588;10.176;2023-11-21T09:28:46;101424.91;;;7.37;93.77
46394;BME280;32099;53.588;10.176;2023-11-21T09:31:15;101433.63;;;7.41;94.63
46394;BME280;32099;53.588;10.176;2023-11-21T09:33:40;101437.75;;;7.45;94.33
46394;BME280;32099;53.588;10.176;2023-11-21T09:36:10;101436.59;;;7.48;93.55
46394;BME280;32099;53.588;10.176;2023-11-21T09:38:36;101440.16;;;7.48;94.21
46394;BME280;32099;53.588;10.176;2023-11-21T09:41:02;101437.44;;;7.48;94.17
46394;BME280;32099;53.588;10.176;2023-11-21T09:43:30;101439.31;;;7.48;92.83
46394;BME280;32099;53.588;10.176;2023-11-21T09:45:59;101444.91;;;7.46;92.28
46394;BME280;32099;53.588;10.176;2023-11-21T09:48:29;101450.75;;;7.41;93.56
46394;BME280;32099;53.588;10.176;2023-11-21T09:50:55;101450.75;;;7.41;92.89
46394;BME280;32099;53.588;10.176;2023-11-21T09:53:24;101460.59;;;7.43;93.57
46394;BME280;32099;53.588;10.176;2023-11-21T09:55:53;101465.03;;;7.44;93.70
46394;BME280;32099;53.588;10.176;2023-11-21T09:58:19;101470.00;;;7.48;93.57
46394;BME280;32099;53.588;10.176;2023-11-21T10:00:46;101475.31;;;7.50;93.27
46394;BME280;32099;53.588;10.176;2023-11-21T10:03:13;101479.03;;;7.49;94.04
46394;BME280;32099;53.588;10.176;2023-11-21T10:05:42;101467.00;;;7.51;93.03
46394;BME280;32099;53.588;10.176;2023-11-21T10:08:09;101477.31;;;7.57;93.90
46394;BME280;32099;53.588;10.176;2023-11-21T10:10:36;101481.28;;;7.63;93.87
46394;BME280;32099;53.588;10.176;2023-11-21T10:13:03;101477.97;;;7.69;93.86
46394;BME280;32099;53.588;10.176;2023-11-21T10:15:30;101477.00;;;7.70;93.85
46394;BME280;32099;53.588;10.176;2023-11-21T10:17:56;101490.56;;;7.70;90.77
46394;BME280;32099;53.588;10.176;2023-11-21T10:20:22;101490.72;;;7.69;91.79
46394;BME280;32099;53.588;10.176;2023-11-21T10:22:52;101486.84;;;7.62;90.65
46394;BME280;32099;53.588;10.176;2023-11-21T10:25:18;101481.41;;;7.62;91.84
46394;BME280;32099;53.588;10.176;2023-11-21T10:27:45;101481.84;;;7.67;92.65
46394;BME280;32099;53.588;10.176;2023-11-21T10:30:12;101487.69;;;7.72;90.88
46394;BME280;32099;53.588;10.176;2023-11-21T10:32:38;101487.25;;;7.77;90.96
46394;BME280;32099;53.588;10.176;2023-11-21T10:35:04;101487.97;;;7.79;92.15
46394;BME280;32099;53.588;10.176;2023-11-21T10:37:30;101492.66;;;7.77;89.93
46394;BME280;32099;53.588;10.176;2023-11-21T10:39:59;101501.84;;;7.76;89.36
46394;BME280;32099;53.588;10.176;2023-11-21T10:42:25;101507.00;;;7.69;91.02
46394;BME280;32099;53.588;10.176;2023-11-21T10:44:51;101510.16;;;7.64;91.78
46394;BME280;32099;53.588;10.176;2023-11-21T10:47:17;101513.28;;;7.60;92.96
46394;BME280;32099;53.588;10.176;2023-11-21T10:49:42;101510.56;;;7.60;91.48
46394;BME280;32099;53.588;10.176;2023-11-21T10:52:08;101513.72;;;7.55;90.71
46394;BME280;32099;53.588;10.176;2023-11-21T10:54:34;101513.16;;;7.51;89.14
46394;BME280;32099;53.588;10.176;2023-11-21T10:57:02;101515.03;;;7.51;90.70
46394;BME280;32099;53.588;10.176;2023-11-21T10:59:30;101510.59;;;7.50;90.63
46394;BME280;32099;53.588;10.176;2023-11-21T11:01:57;101508.00;;;7.48;92.17
46394;BME280;32099;53.588;10.176;2023-11-21T11:04:23;101506.16;;;7.49;88.96
46394;BME280;32099;53.588;10.176;2023-11-21T11:06:54;101508.88;;;7.49;91.49
46394;BME280;32099;53.588;10.176;2023-11-21T11:09:22;101518.75;;;7.50;88.26
46394;BME280;32099;53.588;10.176;2023-11-21T11:11:47;101518.84;;;7.48;88.99
46394;BME280;32099;53.588;10.176;2023-11-21T11:14:16;101519.72;;;7.49;89.82
46394;BME280;32099;53.588;10.176;2023-11-21T11:16:44;101533.16;;;7.50;89.88
46394;BME280;32099;53.588;10.176;2023-11-21T11:19:10;101533.59;;;7.55;89.64
46394;BME280;32099;53.588;10.176;2023-11-21T11:21:39;101534.59;;;7.54;88.94
46394;BME280;32099;53.588;10.176;2023-11-21T11:24:15;101536.72;;;7.61;88.75
46394;BME280;32099;53.588;10.176;2023-11-21T11:26:56;101530.72;;;7.57;89.76
46394;BME280;32099;53.588;10.176;2023-11-21T11:29:32;101532.72;;;7.55;89.10
46394;BME280;32099;53.588;10.176;2023-11-21T11:32:09;101535.31;;;7.56;88.08
46394;BME280;32099;53.588;10.176;2023-11-21T11:34:46;101533.31;;;7.59;88.96
46394;BME280;32099;53.588;10.176;2023-11-21T11:37:19;101541.56;;;7.57;87.03
46394;BME280;32099;53.588;10.176;2023-11-21T11:39:45;101540.28;;;7.51;87.12
46394;BME280;32099;53.588;10.176;2023-11-21T11:42:12;101538.16;;;7.45;87.78
46394;BME280;32099;53.588;10.176;2023-11-21T11:44:53;101544.16;;;7.49;88.45
46394;BME280;32099;53.588;10.176;2023-11-21T11:47:23;101541.28;;;7.50;89.34
46394;BME280;32099;53.588;10.176;2023-11-21T11:49:56;101481.63;;;7.11;87.80
46394;BME280;32099;53.588;10.176;2023-11-21T11:52:35;101537.03;;;7.48;87.41
46394;BME280;32099;53.588;10.176;2023-11-21T11:55:03;101546.88;;;7.49;87.69
46394;BME280;32099;53.588;10.176;2023-11-21T11:57:30;101547.88;;;7.48;86.99
46394;BME280;32099;53.588;10.176;2023-11-21T12:00:14;101552.47;;;7.47;86.99
46394;BME280;32099;53.588;10.176;2023-11-21T12:02:43;101546.00;;;7.48;86.68
46394;BME280;32099;53.588;10.176;2023-11-21T12:05:10;101548.59;;;7.50;88.56
46394;BME280;32099;53.588;10.176;2023-11-21T12:07:43;101555.59;;;7.52;88.28
46394;BME280;32099;53.588;10.176;2023-11-21T12:10:14;101558.28;;;7.52;88.77
46394;BME280;32099;53.588;10.176;2023-11-21T12:12:44;101554.88;;;7.50;87.29
46394;BME280;32099;53.588;10.176;2023-11-21T12:15:13;101568.59;;;7.49;87.57
46394;BME280;32099;53.588;10.176;2023-11-21T12:17:42;101570.31;;;7.50;88.78
46394;BME280;32099;53.588;10.176;2023-11-21T12:20:09;101573.03;;;7.50;87.13
46394;BME280;32099;53.588;10.176;2023-11-21T12:22:36;101580.59;;;7.46;88.22
46394;BME280;32099;53.588;10.176;2023-11-21T12:25:02;101584.44;;;7.44;88.88
46394;BME280;32099;53.588;10.176;2023-11-21T12:27:28;101585.56;;;7.41;87.38
46394;BME280;32099;53.588;10.176;2023-11-21T12:29:53;101590.16;;;7.40;87.93
46394;BME280;32099;53.588;10.176;2023-11-21T12:32:22;101597.84;;;7.35;88.13
46394;BME280;32099;53.588;10.176;2023-11-21T12:34:47;101592.00;;;7.30;87.98
46394;BME280;32099;53.588;10.176;2023-11-21T12:37:13;101609.41;;;7.28;88.24
46394;BME280;32099;53.588;10.176;2023-11-21T12:39:39;101605.13;;;7.25;88.01
46394;BME280;32099;53.588;10.176;2023-11-21T12:42:04;101614.41;;;7.22;87.15
46394;BME280;32099;53.588;10.176;2023-11-21T12:44:30;101615.41;;;7.21;86.40